Time;durP1;ratioP1;P1;durP2;ratioP2;P2;SDS_P1;SDS_P2;PMS_P1;PMS_P2;Temp;Humidity;BMP_temperature;BMP_pressure;BME280_temperature;BME280_humidity;BME280_pressure;Samples;Min_cycle;Max_cycle;Signal;HPM_P1;HPM_P2
2024/04/10 00:10:52;;;;;;;0.00;0.00;;;;;;;;;;33910527;25;1117484;-58
2024/04/10 00:26:25;;;;;;;0.00;0.00;;;;;;;;;;33885385;26;20296;-59
2024/04/10 00:41:31;;;;;;;0.00;0.00;;;;;;;;;;33881884;26;20254;-58
2024/04/10 00:56:37;;;;;;;0.00;0.00;;;;;;;;;;33878644;26;20254;-58
2024/04/10 01:11:44;;;;;;;0.00;0.00;;;;;;;;;;33846878;26;20255;-59
2024/04/10 01:27:16;;;;;;;0.00;0.00;;;;;;;;;;33806785;26;20854;-59
2024/04/10 01:42:23;;;;;;;0.00;0.00;;;;;;;;;;33891028;26;20289;-58
2024/04/10 01:57:29;;;;;;;0.00;0.00;;;;;;;;;;33782611;26;20289;-58
2024/04/10 02:12:35;;;;;;;0.00;0.00;;;;;;;;;;33792034;26;20251;-58
2024/04/10 02:28:07;;;;;;;0.00;0.00;;;;;;;;;;33885441;26;20310;-59
2024/04/10 02:43:14;;;;;;;0.00;0.00;;;;;;;;;;34005061;26;20355;-58
2024/04/10 02:58:21;;;;;;;0.00;0.00;;;;;;;;;;33996518;26;20656;-57
2024/04/10 03:13:27;;;;;;;0.00;0.00;;;;;;;;;;34001928;26;20742;-58
2024/04/10 03:29:00;;;;;;;0.00;0.00;;;;;;;;;;34003052;26;20276;-58
2024/04/10 03:44:06;;;;;;;0.00;0.00;;;;;;;;;;33996287;26;20257;-58
2024/04/10 03:59:12;;;;;;;0.00;0.00;;;;;;;;;;33995561;26;20353;-58
2024/04/10 04:14:19;;;;;;;0.00;0.00;;;;;;;;;;33995984;26;20312;-58
2024/04/10 04:29:51;;;;;;;0.00;0.00;;;;;;;;;;33994003;26;20273;-59
2024/04/10 04:44:58;;;;;;;0.00;0.00;;;;;;;;;;33987841;26;20258;-58
2024/04/10 05:00:11;;;;;;;0.00;0.00;;;;;;;;;;34014605;26;20807;-58
2024/04/10 05:15:18;;;;;;;0.00;0.00;;;;;;;;;;34006047;26;20255;-57
2024/04/10 05:30:51;;;;;;;0.00;0.00;;;;;;;;;;34007263;26;20643;-58
2024/04/10 05:45:57;;;;;;;0.00;0.00;;;;;;;;;;34005222;26;20257;-58
2024/04/10 06:01:07;;;;;;;0.00;0.00;;;;;;;;;;34002612;26;20381;-57
2024/04/10 06:16:13;;;;;;;0.10;0.10;;;;;;;;;;34002344;26;20795;-57
2024/04/10 06:31:46;;;;;;;0.00;0.00;;;;;;;;;;34005578;26;20254;-57
2024/04/10 06:46:52;;;;;;;0.00;0.00;;;;;;;;;;33996917;26;20250;-58
2024/04/10 07:01:59;;;;;;;0.00;0.00;;;;;;;;;;34003376;26;20261;-59
2024/04/10 07:17:09;;;;;;;0.00;0.00;;;;;;;;;;34002046;26;20791;-58
2024/04/10 07:32:21;;;;;;;0.00;0.00;;;;;;;;;;34001766;26;20744;-58
2024/04/10 07:47:27;;;;;;;0.00;0.00;;;;;;;;;;33998945;26;20250;-58
2024/04/10 08:02:34;;;;;;;0.00;0.00;;;;;;;;;;33996276;26;20309;-58
2024/04/10 08:17:41;;;;;;;0.00;0.00;;;;;;;;;;33995728;26;20300;-58
2024/04/10 08:33:14;;;;;;;0.00;0.00;;;;;;;;;;34014606;26;20261;-58
2024/04/10 08:48:21;;;;;;;0.00;0.00;;;;;;;;;;34013695;26;20732;-58
2024/04/10 09:03:27;;;;;;;0.00;0.00;;;;;;;;;;34011612;26;20717;-58
2024/04/10 09:18:34;;;;;;;0.00;0.00;;;;;;;;;;34013050;26;20305;-57
2024/04/10 09:34:06;;;;;;;0.00;0.00;;;;;;;;;;34009499;25;20252;-58
2024/04/10 09:49:14;;;;;;;0.00;0.00;;;;;;;;;;33999468;26;20741;-60
2024/04/10 10:04:20;;;;;;;0.00;0.00;;;;;;;;;;34009302;26;20280;-58
2024/04/10 10:19:27;;;;;;;0.00;0.00;;;;;;;;;;34005713;26;20256;-58
2024/04/10 10:34:59;;;;;;;0.00;0.00;;;;;;;;;;34006008;26;20296;-58
2024/04/10 10:50:09;;;;;;;0.00;0.00;;;;;;;;;;33993131;26;20513;-58
2024/04/10 11:05:16;;;;;;;0.00;0.00;;;;;;;;;;34000937;26;20305;-58
2024/04/10 11:20:22;;;;;;;0.00;0.00;;;;;;;;;;33998791;26;20613;-58
2024/04/10 11:35:55;;;;;;;0.00;0.00;;;;;;;;;;34001749;26;20254;-58
2024/04/10 11:51:01;;;;;;;0.00;0.00;;;;;;;;;;33992142;26;20261;-59
2024/04/10 12:06:08;;;;;;;0.00;0.00;;;;;;;;;;33893725;26;20303;-58
2024/04/10 12:21:14;;;;;;;0.00;0.00;;;;;;;;;;33967088;26;20313;-59
2024/04/10 12:52:09;;;;;;;0.00;0.00;;;;;;;;;;33938796;26;20296;-58
2024/04/10 13:07:16;;;;;;;0.00;0.00;;;;;;;;;;34027423;26;20311;-58
2024/04/10 13:22:24;;;;;;;0.00;0.00;;;;;;;;;;34069588;26;20594;-58
2024/04/10 13:37:57;;;;;;;0.00;0.00;;;;;;;;;;34077895;26;20251;-59
2024/04/10 13:53:03;;;;;;;0.00;0.00;;;;;;;;;;34074080;26;20296;-58
2024/04/10 14:08:10;;;;;;;0.00;0.00;;;;;;;;;;34072150;26;20248;-59
2024/04/10 14:23:17;;;;;;;0.00;0.00;;;;;;;;;;34070404;26;20257;-58
2024/04/10 14:38:49;;;;;;;0.00;0.00;;;;;;;;;;34079418;26;20242;-59
2024/04/10 14:53:56;;;;;;;0.00;0.00;;;;;;;;;;34073330;26;20373;-59
2024/04/10 15:09:04;;;;;;;0.00;0.00;;;;;;;;;;34073231;26;20249;-59
2024/04/10 15:24:11;;;;;;;0.00;0.00;;;;;;;;;;34075687;26;21029;-59
2024/04/10 15:39:43;;;;;;;0.00;0.00;;;;;;;;;;34080265;26;20249;-59
2024/04/10 15:54:50;;;;;;;0.00;0.00;;;;;;;;;;34060145;26;20270;-60
2024/04/10 16:09:56;;;;;;;0.00;0.00;;;;;;;;;;34073273;26;20288;-59
2024/04/10 16:25:02;;;;;;;0.00;0.00;;;;;;;;;;34072372;26;20291;-60
2024/04/10 16:40:35;;;;;;;0.00;0.00;;;;;;;;;;34084269;26;20249;-60
2024/04/10 16:55:41;;;;;;;0.00;0.00;;;;;;;;;;34091345;26;20711;-58
2024/04/10 17:10:47;;;;;;;0.00;0.00;;;;;;;;;;34093255;26;20285;-59
2024/04/10 17:25:59;;;;;;;0.00;0.00;;;;;;;;;;34075394;26;20258;-59
2024/04/10 17:41:32;;;;;;;0.00;0.00;;;;;;;;;;34084069;26;20347;-59
2024/04/10 17:57:04;;;;;;;0.00;0.00;;;;;;;;;;34075827;26;20416;-59
2024/04/10 18:12:16;;;;;;;0.00;0.00;;;;;;;;;;34151617;25;20283;-58
2024/04/10 18:27:23;;;;;;;0.00;0.00;;;;;;;;;;34185163;25;20794;-58
2024/04/10 18:42:30;;;;;;;0.00;0.00;;;;;;;;;;34182771;25;20257;-59
2024/04/10 18:58:02;;;;;;;0.00;0.00;;;;;;;;;;34190968;25;20789;-59
2024/04/10 19:13:08;;;;;;;0.00;0.00;;;;;;;;;;33983704;26;20256;-60
2024/04/10 19:28:15;;;;;;;0.00;0.00;;;;;;;;;;33989974;26;20259;-59
2024/04/10 19:43:21;;;;;;;0.00;0.00;;;;;;;;;;33989190;26;20351;-59
2024/04/10 19:58:54;;;;;;;0.00;0.00;;;;;;;;;;33979926;25;20250;-59
2024/04/10 20:14:02;;;;;;;0.00;0.00;;;;;;;;;;33735301;26;20816;-60
2024/04/10 20:29:10;;;;;;;0.00;0.00;;;;;;;;;;33779215;26;20306;-58
2024/04/10 20:44:17;;;;;;;0.00;0.00;;;;;;;;;;33781472;26;20313;-59
2024/04/10 20:59:50;;;;;;;0.00;0.00;;;;;;;;;;33788935;26;20250;-59
2024/04/10 22:32:14;;;;;;;0.00;0.00;;;;;;;;;;34228784;25;20798;-59
2024/04/10 22:47:21;;;;;;;0.00;0.00;;;;;;;;;;34219784;25;20840;-59
2024/04/10 23:02:53;;;;;;;0.00;0.00;;;;;;;;;;34154096;26;20249;-59
2024/04/10 23:17:59;;;;;;;0.00;0.00;;;;;;;;;;33989442;26;20254;-59
2024/04/10 23:33:06;;;;;;;0.00;0.00;;;;;;;;;;33988597;26;20246;-59
2024/04/10 23:48:15;;;;;;;0.00;0.00;;;;;;;;;;33982446;26;20360;-60
